Aérodrome :
LOGIN :

S'inscrire | Disclaimer

   EN    FR    IT 

 










Légende :    VFR   VFR Marginal   IFR   IFR Intensif   IFR Très Intensif
Visi : 
Plafond : 
>= 8 km
>= 3000ft
5 à 8 km
1000 à 3000 ft
1500m à 5 km
500 à 1000 ft
800 à 1500m
200 à 500 ft
< 800m
< 200 ft
Symboles :   Orages  Brouillard  Fortes neiges  Fortes précipitations  Vent > 20 kt
SIGMETs :   Divers  Orages  Givrage  Turbulence  Onde Orograph.  Cendres Volcan.






- Altitude de l'aérodrome : 404 ft
- Code IATA : WRO


EPWR - Wroclaw

DERNIER METAR :
  • 181900Z 14005KT 130V190 CAVOK 26/15 Q1013

METARs EXPIRÉS :
  • 181830Z 19002KT CAVOK 26/15 Q1013
  • 181730Z 20005KT CAVOK 28/13 Q1013
  • 181700Z 18007KT 150V210 CAVOK 28/13 Q1013
  • 181630Z 19006KT CAVOK 29/13 Q1014
  • 181600Z 21007KT 170V250 CAVOK 29/13 Q1014
  • 181530Z 19006KT 150V230 CAVOK 29/12 Q1014
  • 181500Z 22008KT CAVOK 28/12 Q1015
  • 181430Z 22007KT 190V250 CAVOK 30/13 Q1015

TAF TAF EPWR
Valide du 18 à 18h jusqu'au 19 à 18h UTC


181730Z 1818/1918 18010KT CAVOK
PROB40
TEMPO 1822/1901 VRB16G30KT SHRA BKN050CB
BECMG 1906/1908 30010KT
TEMPO 1909/1915 BKN040CB
PROB40
TEMPO 1912/1918 VRB16G30KT 2500 TSRA BKN020CB



MET'MAP, la Météo Aéronautique d'un coup d'oeil ! - Copyright ORBIFLY Décembre 2007 - Disclaimer

ORBIFLY MET'MAP TEAM :

Programmation & Développement : Alexandra Zaïnal
Sur une idée originale de : Baudouin d'Aumeries
Soutien technique & logistique : Manuel Goepfert
Assistance : Marc-Olivier Méhu




SOURCES & CREDITS :

   NOAA